North Battleford Airport
CYQW : now visible

Aeroporto :











RITROVATECI SU...

 
LOGIN :

Iscrizione | Disclaimer

   EN    FR    IT 

 









Sommario :    VFR   VFR Marginale   IFR   IFR Intensivo   IFR Molto Intensivo
Visibilità : 
Base nubi : 
>= 8 km
>= 3000ft
5 / 8 km
1000 / 3000 ft
1500m / 5 km
500 / 1000 ft
800 / 1500m
200 / 500 ft
< 800m
< 200 ft
Simboli :   Temporali  Nebbia  Neve Forte  Precipitazioni Forti  Vento > 20 kt






- Altitudine del aeroporto : 1799 ft
- Codice IATA : YQW


CYQW - North Battleford

ULTIMO METAR :
  • 020600Z AUTO 12012KT 9SM CLR 15/11 A2966 RMK SLP048 DENSITY ALT 2400FT

METARs OBSOLETI :
  • 020500Z AUTO 11010KT 9SM CLR 15/11 A2966 RMK SLP049 DENSITY ALT 2400FT
  • 020400Z AUTO 11012KT 9SM SCT085 SCT110 17/12 A2966 RMK SLP049 DENSITY ALT 2600FT

TAF TAF CYQW
Valido dal 02 a 06 ore il 02 a 18 ore UTC


020538Z 0206/0218 12010KT P6SM SKC
FM021200 14012KT P6SM SCT100 RMK FCST BASED ON AUTO OBS. NXT FCST BY 021200Z
FIR CZWG / America del Nord



MetMap, La meteo Aeronautica in un colpo d'occhio ! - Copyright ORBIFLY Dicembre 2007 - Disclaimer

ORBIFLY MET'MAP TEAM :

Programmazione e sviluppo : Alexandra Zaïnal
Concezione : Baudouin d'Aumeries
Aiuto per la programmazione : Marc-Olivier Méhu
Supporto tecnico e logistico : Manuel Goepfert
Aiuto per la traduzione : Arnaldo La Scala

Contatto : metmap@orbifly.com




FONTI E CREDITI :

   NOAA       Earth
Advisory